Latest Weather Observations for Longreach

IDQ60801

Issued at 6:32 am EST Thursday 22 February 2018 (issued every 30 minutes, with the page automatically refreshed every 10 minutes)

About weather observations | Map of weather stations | Latest weather observations for QLD | Other Formats
Station Details ID: 036031 Name: LONGREACH AERO Lat: -23.44 Lon: 144.28 Height: 192.2 m
Data from the previous 72 hours. | See also: Recent months at Longreach
Date/Time
EST
Temp
°C
App
Temp
°C
Dew
Point
°C
Rel
Hum
%
Delta-T
°C
Wind Press
QNH
hPa
Press
MSL
hPa
Rain since
9am
mm
Dir  Spd
km/h
Gust
km/h
Spd
kts
Gust
kts
22/06:30am 22.9 21.2 17.1 70 3.6 E 22 32 12 17 1007.4 1006.0 0.0
22/06:00am 22.8 21.1 17.3 71 3.4 E 22 28 12 15 1007.0 1005.6 0.0
22/05:30am 22.9 21.2 17.1 70 3.6 E 22 28 12 15 1006.8 1005.4 0.0
22/05:00am 22.9 21.5 16.9 69 3.7 E 20 26 11 14 1007.0 1005.6 0.0
22/04:30am 23.2 21.4 17.0 68 3.8 E 22 30 12 16 1006.7 1005.3 0.0
22/04:00am 23.2 20.9 16.7 67 4.0 E 24 30 13 16 1006.7 1005.3 0.0
22/03:30am 23.3 20.6 16.6 66 4.1 E 26 32 14 17 1006.7 1005.3 0.0
22/03:00am 23.6 20.9 16.6 65 4.3 E 26 35 14 19 1006.9 1005.5 0.0
22/02:30am 23.6 20.8 16.4 64 4.4 E 26 32 14 17 1006.5 1005.1 0.0
22/02:00am 23.8 21.3 16.1 62 4.7 E 24 32 13 17 1006.5 1005.1 0.0
22/01:30am 24.1 21.6 16.1 61 4.9 ESE 24 32 13 17 1006.5 1005.1 0.0
22/01:00am 24.4 22.2 15.9 59 5.2 E 22 30 12 16 1006.8 1005.4 0.0
22/12:30am 24.7 22.1 15.9 58 5.4 E 24 32 13 17 1006.9 1005.5 0.0
22/12:00am 25.0 21.9 15.6 56 5.8 E 26 33 14 18 1007.2 1005.8 0.0
 
Date/Time
EST
Temp
°C
App
Temp
°C
Dew
Point
°C
Rel
Hum
%
Delta-T
°C
Wind Press
QNH
hPa
Press
MSL
hPa
Rain since
9am
mm
Dir  Spd
km/h
Gust
km/h
Spd
kts
Gust
kts
21/11:30pm 25.3 21.6 15.0 53 6.2 E 28 35 15 19 1007.3 1005.9 0.0
21/11:00pm 25.7 21.9 14.8 51 6.6 E 28 35 15 19 1007.5 1006.1 0.0
21/10:30pm 26.4 22.4 15.1 49 6.9 E 30 39 16 21 1007.5 1006.1 0.0
21/10:00pm 27.0 23.3 16.0 51 6.8 E 30 37 16 20 1007.1 1005.7 0.0
21/09:30pm 27.7 23.7 16.3 49 7.1 E 32 39 17 21 1006.5 1005.1 0.0
21/09:00pm 28.2 24.4 16.8 50 7.2 E 32 39 17 21 1005.9 1004.5 0.0
21/08:30pm 29.3 24.6 15.8 44 8.4 E 35 46 19 25 1005.1 1003.7 0.0
21/08:00pm 30.0 25.2 15.7 42 8.9 E 35 48 19 26 1004.9 1003.5 0.0
21/07:30pm 30.3 26.3 16.7 44 8.6 E 33 43 18 23 1004.3 1002.9 0.0
21/07:00pm 31.0 27.6 15.8 40 9.5 E 28 37 15 20 1003.4 1002.1 0.0
21/06:30pm 31.5 28.1 15.9 39 9.8 E 28 39 15 21 1003.0 1001.6 0.0
21/06:00pm 32.0 28.4 16.3 39 10.0 E 30 37 16 20 1002.7 1001.3 0.0
21/05:30pm 32.5 29.1 15.9 36 10.5 E 28 37 15 20 1002.6 1001.2 0.0
21/05:00pm 33.0 29.6 15.9 35 10.8 E 28 39 15 21 1002.2 1000.8 0.0
21/04:30pm 33.4 31.0 16.3 36 10.9 E 24 35 13 19 1002.2 1000.8 0.0
21/04:00pm 33.6 29.7 16.9 37 10.7 E 33 44 18 24 1002.3 1000.9 0.0
21/03:30pm 33.4 30.6 16.3 36 10.9 E 26 39 14 21 1002.5 1001.1 0.0
21/03:00pm 33.1 31.3 16.9 38 10.4 ESE 22 30 12 16 1002.9 1001.5 0.0
21/02:30pm 32.7 31.4 16.9 38 10.1 E 19 33 10 18 1003.2 1001.8 0.0
21/02:00pm 32.2 30.4 16.9 40 9.8 E 22 33 12 18 1003.6 1002.3 0.0
21/01:30pm 31.9 30.3 17.4 42 9.3 E 22 33 12 18 1004.0 1002.7 0.0
21/01:00pm 31.8 30.1 17.3 42 9.3 E 22 32 12 17 1004.5 1003.1 0.0
21/12:30pm 31.5 29.3 17.8 44 8.8 E 26 41 14 22 1004.8 1003.4 0.0
21/12:00pm 29.9 28.7 17.4 47 8.0 E 20 32 11 17 1005.2 1003.8 0.0
21/11:30am 29.2 27.2 17.4 49 7.5 E 24 32 13 17 1005.6 1004.2 0.0
21/11:00am 27.6 24.3 16.9 52 6.7 E 30 37 16 20 1006.0 1004.6 0.0
21/10:30am 28.2 25.9 17.7 53 6.7 E 26 35 14 19 1006.4 1005.0 0.0
21/10:00am 26.6 23.2 16.8 55 6.1 E 30 39 16 21 1006.4 1005.0 0.0
21/09:30am 25.2 21.3 16.4 58 5.4 E 32 37 17 20 1006.7 1005.3 0.0
21/09:00am 24.0 19.9 16.0 61 4.9 E 32 39 17 21 1006.9 1005.5 -
21/08:30am 23.7 19.7 16.2 63 4.6 ESE 32 39 17 21 1006.6 1005.2 -
21/08:00am 23.3 19.3 16.1 64 4.4 ESE 32 37 17 20 1006.5 1005.1 -
21/07:30am 23.0 18.8 15.8 64 4.4 ESE 32 39 17 21 1006.3 1004.9 -
21/07:00am 22.7 20.1 15.8 65 4.2 ESE 24 33 13 18 1006.2 1004.8 -
21/06:30am 22.6 19.2 15.9 66 4.1 ESE 28 35 15 19 1006.0 1004.6 -
21/06:00am 22.4 19.3 15.7 66 4.1 ESE 26 33 14 18 1005.7 1004.3 -
21/05:30am 22.1 19.0 15.7 67 3.9 ESE 26 32 14 17 1005.5 1004.1 -
21/05:00am 22.1 20.2 15.7 67 3.9 ESE 20 26 11 14 1005.4 1004.0 -
21/04:30am 22.2 20.8 15.5 66 4.0 ESE 17 24 9 13 1005.2 1003.8 -
21/04:00am 22.4 20.4 15.5 65 4.2 ESE 20 26 11 14 1005.3 1003.9 -
21/03:30am 22.5 20.2 15.6 65 4.2 ESE 22 30 12 16 1005.2 1003.8 -
21/03:00am 22.6 19.9 15.7 65 4.2 ESE 24 32 13 17 1005.0 1003.6 0.0
21/02:30am 22.8 21.0 15.9 65 4.2 E 20 30 11 16 1005.4 1004.0 -
21/02:00am 22.9 21.1 16.0 65 4.2 E 20 28 11 15 1005.2 1003.8 -
21/01:30am 23.0 21.1 15.8 64 4.4 E 20 28 11 15 1005.2 1003.8 -
21/01:00am 23.3 21.7 15.9 63 4.5 E 19 26 10 14 1005.2 1003.8 -
21/12:30am 23.8 20.9 16.1 62 4.7 E 26 35 14 19 1005.2 1003.8 -
21/12:00am 24.4 20.9 16.4 61 4.9 E 30 39 16 21 1005.4 1004.0 -
 
Date/Time
EST
Temp
°C
App
Temp
°C
Dew
Point
°C
Rel
Hum
%
Delta-T
°C
Wind Press
QNH
hPa
Press
MSL
hPa
Rain since
9am
mm
Dir  Spd
km/h
Gust
km/h
Spd
kts
Gust
kts
20/11:30pm 25.0 21.1 17.0 61 5.0 ENE 33 44 18 24 1005.3 1003.9 -
20/11:00pm 25.7 21.5 17.1 59 5.4 E 35 43 19 23 1005.0 1003.6 -
20/10:30pm 26.4 22.6 17.2 57 5.8 E 33 44 18 24 1004.7 1003.3 -
20/10:00pm 27.0 23.5 17.5 56 6.0 E 32 44 17 24 1003.7 1002.4 -
20/09:30pm 27.8 22.7 16.7 50 7.0 E 39 52 21 28 1003.1 1001.7 -
20/09:00pm 29.3 23.2 16.1 44 8.3 ESE 43 54 23 29 1002.6 1001.2 -
20/08:30pm 30.9 24.8 15.3 38 9.7 ESE 41 57 22 31 1002.1 1000.7 -
20/08:00pm 31.7 26.5 14.4 35 10.7 SE 35 50 19 27 1001.0 999.6 -
20/05:00pm 42.2 34.7 4.3 10 21.1 SW 33 59 18 32 997.3 995.9 0.0
20/04:58pm 41.9 34.3 4.0 10 20.8 SW 33 59 18 32 997.3 995.9 0.0
20/04:38pm 42.1 34.6 4.2 10 20.9 SW 33 48 18 26 997.3 995.9 0.0
20/04:30pm 42.7 35.7 6.0 11 20.9 SW 32 43 17 23 997.5 996.1 0.0
20/04:04pm 41.9 35.4 6.7 12 20.1 WSW 30 48 16 26 997.7 996.3 0.0
20/04:00pm 41.3 34.2 6.2 12 20.0 WSW 33 48 18 26 997.9 996.5 0.0
20/03:30pm 41.4 35.5 7.4 13 19.6 SW 28 39 15 21 998.5 997.1 0.0
20/03:00pm 41.3 37.5 11.3 17 18.3 WSW 22 35 12 19 999.2 997.8 0.0
20/02:30pm 40.5 38.7 13.2 20 17.0 SSW 15 26 8 14 1000.0 998.6 0.0
20/02:00pm 40.7 36.4 13.3 20 17.2 WNW 28 39 15 21 1000.5 999.1 0.0
20/01:30pm 40.1 37.1 13.6 21 16.6 WNW 22 32 12 17 1001.2 999.8 0.0
20/01:00pm 39.4 37.8 15.1 24 15.5 NNW 17 26 9 14 1001.8 1000.4 0.0
20/12:30pm 38.2 36.0 15.9 26 14.3 NW 22 33 12 18 1002.2 1000.8 0.0
20/12:00pm 37.6 34.4 15.4 27 14.2 NNW 26 37 14 20 1002.9 1001.5 0.0
20/11:30am 37.0 33.1 16.5 29 13.2 NNW 32 41 17 22 1003.4 1002.1 0.0
20/11:00am 35.2 31.5 17.4 34 11.6 NNW 33 46 18 25 1003.8 1002.5 0.0
20/10:54am 35.3 32.0 18.0 36 11.3 NNW 32 50 17 27 1003.9 1002.6 0.0
20/10:30am 34.1 30.7 18.2 39 10.4 NNW 33 48 18 26 1004.6 1003.2 0.0
20/10:00am 32.9 28.8 18.3 42 9.6 NNW 37 44 20 24 1005.1 1003.7 0.0
20/09:30am 31.8 27.8 18.4 45 8.7 NNW 37 50 20 27 1005.4 1004.0 0.0
20/09:00am 30.9 27.3 18.6 48 8.0 N 35 50 19 27 1005.7 1004.3 0.0
20/08:30am 29.8 25.7 18.3 50 7.4 N 37 46 20 25 1005.7 1004.3 0.0
20/08:00am 28.7 25.2 17.9 52 6.9 N 33 41 18 22 1006.1 1004.7 0.0
20/07:30am 27.5 24.9 17.7 55 6.2 NNE 28 33 15 18 1006.0 1004.6 0.0
20/07:00am 27.1 25.1 17.3 55 6.2 NNE 24 30 13 16 1005.5 1004.1 0.0
20/06:30am 26.8 25.4 17.0 55 6.2 N 20 26 11 14 1004.8 1003.4 0.0
20/06:00am 26.9 26.0 16.8 54 6.3 N 17 22 9 12 1004.3 1002.9 0.0
20/05:30am 27.2 25.7 16.8 53 6.5 N 20 24 11 13 1003.9 1002.6 0.0
20/05:00am 27.2 25.9 16.8 53 6.5 NNE 19 26 10 14 1003.7 1002.4 0.0
20/04:30am 27.7 26.3 16.6 50 6.9 NNE 19 24 10 13 1003.6 1002.3 0.0
20/04:00am 27.9 26.6 16.8 50 7.0 N 19 22 10 12 1003.5 1002.2 0.0
20/03:30am 28.4 27.1 16.7 49 7.4 N 19 24 10 13 1003.4 1002.1 0.0
20/03:00am 28.8 27.4 17.0 49 7.5 NNW 20 30 11 16 1003.2 1001.8 0.0
20/02:30am 29.0 28.2 17.2 49 7.5 N 17 20 9 11 1003.6 1002.3 0.0
20/02:00am 29.3 28.7 17.5 49 7.6 NNW 17 22 9 12 1003.6 1002.3 0.0
20/01:30am 29.7 28.2 17.8 48 7.6 NNW 22 33 12 18 1003.7 1002.4 0.0
20/01:00am 29.9 29.0 18.3 49 7.5 NNW 20 26 11 14 1003.6 1002.3 0.0
20/12:30am 30.1 28.4 18.2 49 7.7 N 24 33 13 18 1003.7 1002.4 0.0
20/12:00am 30.6 27.7 18.0 47 8.2 NNW 30 39 16 21 1004.2 1002.8 0.0
 
Date/Time
EST
Temp
°C
App
Temp
°C
Dew
Point
°C
Rel
Hum
%
Delta-T
°C
Wind Press
QNH
hPa
Press
MSL
hPa
Rain since
9am
mm
Dir  Spd
km/h
Gust
km/h
Spd
kts
Gust
kts
19/11:30pm 30.3 28.4 16.7 44 8.6 N 22 28 12 15 1004.6 1003.2 0.0
19/11:00pm 31.1 29.8 15.9 40 9.6 N 17 22 9 12 1005.0 1003.6 0.0
19/10:30pm 31.8 29.7 16.1 38 9.9 N 22 30 12 16 1005.1 1003.7 0.0
19/10:00pm 32.5 28.2 15.9 36 10.5 N 33 43 18 23 1004.6 1003.2 0.0
19/09:30pm 33.9 28.4 16.7 35 11.0 N 41 52 22 28 1003.7 1002.4 0.0
19/09:14pm 35.8 33.0 14.4 27 13.3 N 22 52 12 28 1003.0 1001.6 0.0
19/09:00pm 37.2 34.3 9.7 19 16.2 NNW 15 19 8 10 1002.5 1001.1 0.0
19/08:30pm 37.7 35.2 10.9 20 16.0 NNW 15 19 8 10 1002.3 1000.9 0.0
19/08:00pm 38.0 35.3 10.4 19 16.4 NNW 15 19 8 10 1002.0 1000.6 0.0
19/07:30pm 38.7 35.9 10.1 18 16.9 NW 15 19 8 10 1001.7 1000.3 0.0
19/07:00pm 39.5 36.8 9.0 16 17.9 NW 13 15 7 8 1001.6 1000.2 0.0
19/06:30pm 41.0 38.0 9.2 15 18.8 WNW 15 20 8 11 1001.6 1000.2 0.0
19/06:00pm 41.3 38.7 9.5 15 19.0 W 13 17 7 9 1001.5 1000.1 0.0
19/05:30pm 41.0 36.5 10.2 16 18.4 WSW 24 30 13 16 1001.5 1000.1 0.0
19/05:00pm 39.9 34.6 11.1 18 17.5 SW 30 43 16 23 1001.7 1000.3 0.0
19/04:56pm 41.3 35.9 9.5 15 18.9 WSW 28 43 15 23 1001.6 1000.2 0.0
19/04:30pm 41.2 39.4 9.4 15 18.8 SSE 9 13 5 7 1001.4 1000.0 0.0
19/04:00pm 41.7 39.2 9.8 15 19.1 SSW 13 28 7 15 1001.6 1000.2 0.0
19/03:30pm 42.6 38.6 10.5 15 19.4 W 22 39 12 21 1002.0 1000.6 0.0
19/03:00pm 40.7 37.8 10.9 17 18.1 NNW 17 26 9 14 1002.4 1001.0 0.0
19/02:30pm 42.0 38.7 11.0 16 18.8 WNW 19 30 10 16 1003.2 1001.8 0.0
19/02:00pm 42.5 38.8 14.0 19 18.1 NW 26 39 14 21 1003.9 1002.6 0.0
19/01:30pm 41.3 38.9 13.8 20 17.3 NW 19 37 10 20 1004.8 1003.4 0.0
19/01:00pm 40.7 38.2 14.1 21 16.8 NNW 20 33 11 18 1005.4 1004.0 0.0
19/12:30pm 40.0 37.0 14.9 22 16.0 NW 24 35 13 19 1006.1 1004.7 0.0
19/12:00pm 40.4 37.4 15.9 23 15.9 NW 26 39 14 21 1006.7 1005.3 0.0
19/11:30am 40.4 38.5 16.6 25 15.5 NW 22 35 12 19 1007.3 1005.9 0.0
19/11:00am 38.9 36.8 17.1 28 14.3 NW 24 41 13 22 1007.9 1006.5 0.0
19/10:30am 37.4 35.6 16.9 30 13.3 NNW 22 37 12 20 1008.5 1007.2 0.0
19/10:00am 37.7 35.2 16.1 28 13.9 NNW 24 33 13 18 1008.7 1007.4 0.0
19/09:30am 35.3 33.0 15.6 31 12.5 NNW 22 30 12 16 1009.0 1007.7 0.0
19/09:00am 34.2 31.9 14.7 31 12.2 NNW 20 32 11 17 1009.1 1007.8 0.0
19/08:30am 32.9 31.2 13.5 30 11.8 NNE 15 20 8 11 1009.2 1007.9 0.0
19/08:00am 31.3 29.8 13.1 33 11.0 NE 13 17 7 9 1009.1 1007.8 0.0
19/07:30am 29.2 28.4 13.0 37 9.6 NNW 9 13 5 7 1009.4 1008.1 0.0
19/07:00am 26.5 25.1 13.3 44 7.8 NW 13 26 7 14 1008.5 1007.2 0.0

Other Formats:

Comma delimited format used in spreadsheet applications
http://www.bom.gov.au/fwo/IDQ60801/IDQ60801.94346.axf

JavaScript Object Notation format (JSON) in row-major order
http://www.bom.gov.au/fwo/IDQ60801/IDQ60801.94346.json